Time;durP1;ratioP1;P1;durP2;ratioP2;P2;SDS_P1;SDS_P2;PMS_P1;PMS_P2;Temp;Humidity;BMP_temperature;BMP_pressure;BME280_temperature;BME280_humidity;BME280_pressure;Samples;Min_cycle;Max_cycle;Signal;HPM_P1;HPM_P2
2023/01/28 00:01:21;;;;;;;29.93;17.77;;;1.50;38.40;;;;;;6030269;23;20475;-63
2023/01/28 00:03:50;;;;;;;31.20;18.00;;;1.50;38.40;;;;;;6033276;23;20431;-62
2023/01/28 00:06:17;;;;;;;30.53;17.70;;;1.40;38.60;;;;;;6027682;23;20438;-62
2023/01/28 00:08:44;;;;;;;30.87;17.43;;;1.50;38.40;;;;;;6031586;23;20424;-62
2023/01/28 00:11:13;;;;;;;26.57;15.77;;;1.50;38.40;;;;;;6033238;23;20923;-62
2023/01/28 00:13:39;;;;;;;31.40;17.87;;;1.50;38.40;;;;;;6033319;23;20427;-62
2023/01/28 00:16:09;;;;;;;33.97;19.00;;;1.50;38.30;;;;;;6032513;23;20440;-63
2023/01/28 00:18:36;;;;;;;32.17;17.60;;;1.50;38.30;;;;;;6033025;23;20483;-63
2023/01/28 00:21:05;;;;;;;28.70;17.73;;;1.50;38.40;;;;;;6033072;23;20947;-62
2023/01/28 00:23:34;;;;;;;29.00;17.30;;;1.50;38.40;;;;;;6032051;23;20416;-63
2023/01/28 00:26:03;;;;;;;31.97;17.57;;;1.50;38.40;;;;;;6033516;23;20920;-62
2023/01/28 00:28:29;;;;;;;32.43;18.90;;;1.50;38.40;;;;;;6032109;23;20919;-62
2023/01/28 00:30:56;;;;;;;36.70;20.13;;;1.50;38.40;;;;;;6037455;23;20450;-62
2023/01/28 00:33:25;;;;;;;34.70;21.40;;;1.50;38.40;;;;;;6033755;23;20420;-62
2023/01/28 00:35:59;;;;;;;34.40;19.83;;;1.50;38.50;;;;;;6032908;23;20441;-62
2023/01/28 00:38:25;;;;;;;31.60;20.13;;;1.50;38.40;;;;;;6033867;23;20408;-62
2023/01/28 00:40:52;;;;;;;32.57;18.40;;;1.50;38.50;;;;;;6031472;23;20424;-62
2023/01/28 00:43:19;;;;;;;33.93;18.60;;;1.50;38.50;;;;;;6032773;23;20424;-62
2023/01/28 00:45:46;;;;;;;33.07;17.87;;;1.50;38.50;;;;;;6032240;23;20465;-62
2023/01/28 00:48:13;;;;;;;32.73;19.40;;;1.40;38.50;;;;;;6034149;23;20440;-62
2023/01/28 00:50:41;;;;;;;31.60;17.93;;;1.40;38.60;;;;;;6033480;23;20920;-62
2023/01/28 00:53:08;;;;;;;31.00;18.60;;;1.40;38.50;;;;;;6030452;23;20426;-62
2023/01/28 00:55:34;;;;;;;34.20;19.37;;;1.40;38.60;;;;;;6033387;23;20771;-62
2023/01/28 00:58:01;;;;;;;31.30;18.17;;;1.40;38.60;;;;;;6033531;23;20440;-62
2023/01/28 01:00:28;;;;;;;33.40;20.97;;;1.40;38.60;;;;;;6032681;23;20431;-62
2023/01/28 01:02:54;;;;;;;32.90;19.20;;;1.40;38.60;;;;;;6032927;23;20424;-63
2023/01/28 01:05:21;;;;;;;34.73;20.33;;;1.40;38.60;;;;;;6032820;23;20447;-62
2023/01/28 01:07:49;;;;;;;35.53;19.70;;;1.40;38.70;;;;;;6033494;23;20448;-63
2023/01/28 01:10:18;;;;;;;31.37;18.93;;;1.40;38.50;;;;;;6028729;23;20922;-63
2023/01/28 01:12:46;;;;;;;32.90;18.70;;;1.40;38.50;;;;;;6033710;23;20427;-62
2023/01/28 01:15:13;;;;;;;32.90;19.10;;;1.40;38.50;;;;;;6031421;23;20431;-62
2023/01/28 01:17:42;;;;;;;35.80;19.90;;;1.40;38.50;;;;;;6032365;23;20451;-62
2023/01/28 01:20:12;;;;;;;36.30;19.70;;;1.40;38.60;;;;;;6034516;23;20911;-63
2023/01/28 01:22:39;;;;;;;31.77;18.63;;;1.40;38.70;;;;;;6032355;23;20405;-64
2023/01/28 01:25:08;;;;;;;31.97;18.20;;;1.40;38.70;;;;;;6032026;23;20420;-62
2023/01/28 01:27:35;;;;;;;33.27;18.93;;;1.40;38.70;;;;;;6032293;23;20954;-62
2023/01/28 01:30:02;;;;;;;32.83;18.40;;;1.40;38.70;;;;;;6032479;23;20416;-62
2023/01/28 01:32:30;;;;;;;30.70;17.80;;;1.40;38.80;;;;;;6031793;23;20444;-63
2023/01/28 01:34:57;;;;;;;27.77;16.10;;;1.40;38.80;;;;;;6033564;23;20420;-62
2023/01/28 01:37:24;;;;;;;30.77;17.80;;;1.40;38.80;;;;;;6033460;23;20448;-62
2023/01/28 01:39:50;;;;;;;31.63;18.10;;;1.40;38.80;;;;;;6030243;23;20416;-62
2023/01/28 01:42:18;;;;;;;33.80;18.50;;;1.30;38.90;;;;;;6028391;23;20434;-63
2023/01/28 01:45:00;;;;;;;32.90;18.53;;;1.40;39.00;;;;;;6031529;23;20424;-62
2023/01/28 01:47:35;;;;;;;33.97;17.00;;;1.30;39.00;;;;;;6030618;23;20436;-62
2023/01/28 01:50:07;;;;;;;31.17;18.90;;;1.30;38.80;;;;;;6034244;23;20411;-63
2023/01/28 01:52:36;;;;;;;32.80;18.00;;;1.40;38.70;;;;;;6030209;23;20744;-62
2023/01/28 01:55:09;;;;;;;37.10;17.07;;;1.40;38.90;;;;;;6032199;23;20420;-62
2023/01/28 01:57:38;;;;;;;32.70;18.30;;;1.30;38.90;;;;;;6032402;23;20455;-62
2023/01/28 02:00:07;;;;;;;33.07;19.03;;;1.30;39.10;;;;;;6032824;23;20427;-62
2023/01/28 02:02:38;;;;;;;31.37;18.33;;;1.30;39.00;;;;;;6031037;23;20475;-62
2023/01/28 02:05:08;;;;;;;34.13;18.53;;;1.30;39.00;;;;;;6032570;23;20411;-62
2023/01/28 02:07:36;;;;;;;33.33;19.00;;;1.30;39.10;;;;;;6032177;23;20436;-63
2023/01/28 02:10:04;;;;;;;29.17;18.37;;;1.30;39.10;;;;;;6033059;23;20430;-63
2023/01/28 02:12:34;;;;;;;31.90;17.33;;;1.30;39.20;;;;;;6030736;23;20429;-63
2023/01/28 02:15:06;;;;;;;27.27;17.00;;;1.30;39.20;;;;;;6031591;23;20408;-63
2023/01/28 02:17:33;;;;;;;37.53;17.63;;;1.30;39.10;;;;;;6031681;23;20982;-62
2023/01/28 02:20:01;;;;;;;28.60;15.90;;;1.40;39.00;;;;;;6033488;23;20821;-62
2023/01/28 02:23:02;;;;;;;27.73;16.30;;;1.70;39.10;;;;;;6032191;23;20442;-62
2023/01/28 02:25:57;;;;;;;33.13;17.20;;;1.40;39.10;;;;;;6032925;23;20421;-62
2023/01/28 02:28:32;;;;;;;30.47;17.23;;;1.30;39.10;;;;;;6031705;23;20440;-63
2023/01/28 02:31:07;;;;;;;33.80;18.17;;;1.30;39.60;;;;;;6032007;23;20443;-63
2023/01/28 02:33:39;;;;;;;33.53;16.70;;;1.40;39.00;;;;;;6031342;23;20424;-62
2023/01/28 02:36:17;;;;;;;29.80;17.30;;;1.40;39.00;;;;;;6032789;23;20435;-62
2023/01/28 02:38:48;;;;;;;26.03;14.77;;;1.40;39.00;;;;;;6032763;23;20411;-62
2023/01/28 02:41:22;;;;;;;26.53;14.87;;;1.40;38.90;;;;;;6031817;23;20411;-62
2023/01/28 02:43:51;;;;;;;28.30;14.43;;;1.30;38.90;;;;;;6032864;23;20404;-62
2023/01/28 02:49:10;;;;;;;29.73;15.90;;;1.40;38.80;;;;;;6031946;23;20874;-62
2023/01/28 02:51:59;;;;;;;25.67;14.57;;;1.40;38.60;;;;;;6032158;23;20440;-62
2023/01/28 02:54:36;;;;;;;23.30;14.00;;;1.40;38.90;;;;;;6032376;23;20408;-62
2023/01/28 02:57:10;;;;;;;27.67;14.37;;;1.30;38.90;;;;;;6032054;23;20495;-62
2023/01/28 02:59:44;;;;;;;27.77;14.83;;;1.30;38.90;;;;;;6031052;23;20403;-62
2023/01/28 03:02:16;;;;;;;26.03;15.00;;;1.30;39.00;;;;;;6029658;23;20443;-62
2023/01/28 03:04:49;;;;;;;24.30;13.60;;;1.30;38.90;;;;;;6031190;23;20405;-62
2023/01/28 03:07:18;;;;;;;22.50;12.57;;;1.30;39.00;;;;;;6031867;23;20950;-62
2023/01/28 03:09:50;;;;;;;26.70;13.70;;;1.30;38.90;;;;;;6032325;23;20921;-62
2023/01/28 03:37:32;;;;;;;24.20;15.27;;;1.20;38.70;;;;;;6034322;23;20660;-62
2023/01/28 03:40:03;;;;;;;26.40;12.90;;;1.20;38.70;;;;;;6034480;23;20708;-62
2023/01/28 03:42:31;;;;;;;26.17;14.83;;;1.20;38.80;;;;;;6033167;23;20412;-62
2023/01/28 03:44:57;;;;;;;21.93;12.47;;;1.20;38.90;;;;;;6034620;23;20427;-62
2023/01/28 03:47:28;;;;;;;24.57;13.70;;;1.30;38.80;;;;;;6032813;23;20444;-62
2023/01/28 03:49:56;;;;;;;27.97;15.03;;;1.30;38.80;;;;;;6033946;23;20428;-62
2023/01/28 03:52:25;;;;;;;21.20;12.77;;;1.30;38.50;;;;;;6033814;23;20931;-62
2023/01/28 03:54:52;;;;;;;26.67;14.87;;;1.30;38.60;;;;;;6034207;23;20427;-61
2023/01/28 03:57:21;;;;;;;24.53;13.50;;;1.30;38.80;;;;;;6033873;23;20459;-62
2023/01/28 03:59:48;;;;;;;25.10;14.00;;;1.30;38.80;;;;;;6033573;23;20420;-62
2023/01/28 04:02:16;;;;;;;25.40;13.90;;;1.30;38.90;;;;;;6028940;23;20841;-62
2023/01/28 04:04:44;;;;;;;26.43;13.53;;;1.30;39.50;;;;;;6029724;23;20604;-62
2023/01/28 04:07:13;;;;;;;30.17;14.57;;;1.30;38.90;;;;;;6032348;23;20790;-62
2023/01/28 04:09:40;;;;;;;26.80;16.10;;;1.30;38.90;;;;;;6032967;23;20507;-62
2023/01/28 04:12:07;;;;;;;22.13;12.20;;;1.30;39.00;;;;;;6032169;23;20427;-61
2023/01/28 04:14:34;;;;;;;25.17;15.23;;;1.30;39.00;;;;;;6034346;23;20423;-62
2023/01/28 04:17:01;;;;;;;26.50;14.23;;;1.40;39.10;;;;;;6032109;23;20455;-62
2023/01/28 04:19:30;;;;;;;25.53;13.83;;;1.30;39.10;;;;;;6034943;23;20420;-62
2023/01/28 04:21:58;;;;;;;23.83;14.53;;;1.40;39.10;;;;;;6033390;23;20423;-62
2023/01/28 04:24:25;;;;;;;28.10;15.20;;;1.30;39.20;;;;;;6033101;23;20424;-62
2023/01/28 04:26:51;;;;;;;27.13;14.30;;;1.30;39.20;;;;;;6033768;23;20796;-63
2023/01/28 04:29:18;;;;;;;29.73;15.77;;;1.30;39.40;;;;;;6033835;23;20420;-62
2023/01/28 04:31:45;;;;;;;23.47;13.90;;;1.40;39.40;;;;;;6033134;23;20443;-62
2023/01/28 04:34:12;;;;;;;27.17;14.77;;;1.40;39.50;;;;;;6033441;23;20424;-62
2023/01/28 04:36:38;;;;;;;24.27;13.63;;;1.40;39.40;;;;;;6033119;23;20458;-62
2023/01/28 04:39:06;;;;;;;28.30;13.13;;;1.40;39.50;;;;;;6034058;23;20735;-62
2023/01/28 04:41:33;;;;;;;27.90;14.57;;;1.40;39.50;;;;;;6032655;23;20428;-62
2023/01/28 04:44:00;;;;;;;26.90;14.10;;;1.40;39.50;;;;;;6032958;23;20424;-62
2023/01/28 04:46:27;;;;;;;22.63;12.57;;;1.40;39.60;;;;;;6032978;23;20443;-62
2023/01/28 04:48:54;;;;;;;23.40;12.93;;;1.40;39.70;;;;;;6032865;23;20416;-62
2023/01/28 04:51:20;;;;;;;21.57;12.07;;;1.40;39.70;;;;;;6033642;23;20443;-62
2023/01/28 04:53:47;;;;;;;25.10;14.50;;;1.40;39.80;;;;;;6032033;23;20431;-62
2023/01/28 04:56:15;;;;;;;24.73;12.87;;;1.40;39.80;;;;;;6032666;23;20427;-62
2023/01/28 04:58:42;;;;;;;21.23;12.67;;;1.40;39.80;;;;;;6034134;23;20490;-62
2023/01/28 05:01:08;;;;;;;25.70;15.40;;;1.40;39.90;;;;;;6030524;23;20841;-62
2023/01/28 05:03:35;;;;;;;23.67;13.20;;;1.40;40.00;;;;;;6031096;23;20420;-62
2023/01/28 05:06:03;;;;;;;23.27;13.60;;;1.40;40.20;;;;;;6030038;23;20759;-62
2023/01/28 05:08:30;;;;;;;24.67;13.23;;;1.40;40.10;;;;;;6030696;23;21124;-62
2023/01/28 05:10:57;;;;;;;22.10;12.30;;;1.40;40.30;;;;;;6031969;23;20423;-62
2023/01/28 05:13:25;;;;;;;23.10;12.93;;;1.40;40.40;;;;;;6032188;23;20431;-62
2023/01/28 05:15:52;;;;;;;23.83;13.13;;;1.30;40.50;;;;;;6032699;23;20424;-62
2023/01/28 05:18:19;;;;;;;24.23;13.57;;;1.30;40.60;;;;;;6030982;23;20447;-62
2023/01/28 05:20:47;;;;;;;20.07;11.17;;;1.30;40.70;;;;;;6031202;23;20454;-62
2023/01/28 05:23:13;;;;;;;21.90;12.30;;;1.30;40.70;;;;;;6029700;23;20428;-62
2023/01/28 05:25:40;;;;;;;20.40;11.17;;;1.20;41.00;;;;;;6031364;23;20424;-62
2023/01/28 05:28:07;;;;;;;24.40;12.63;;;1.30;41.20;;;;;;6033143;23;20436;-62
2023/01/28 05:30:35;;;;;;;23.47;12.77;;;1.20;41.30;;;;;;6032416;23;20524;-62
2023/01/28 05:33:01;;;;;;;21.20;12.43;;;1.20;41.60;;;;;;6033412;23;20424;-62
2023/01/28 05:35:28;;;;;;;24.40;13.53;;;1.20;41.70;;;;;;6033180;23;20424;-62
2023/01/28 05:37:55;;;;;;;21.80;12.73;;;1.20;42.50;;;;;;6033273;23;20951;-63
2023/01/28 05:40:22;;;;;;;23.47;11.47;;;1.20;41.90;;;;;;6033022;23;20420;-62
2023/01/28 05:42:49;;;;;;;21.80;11.90;;;1.20;41.80;;;;;;6032523;23;20420;-62
2023/01/28 05:45:15;;;;;;;22.87;12.10;;;1.20;41.80;;;;;;6031400;23;20420;-62
2023/01/28 05:47:43;;;;;;;24.60;12.30;;;1.20;41.80;;;;;;6034076;23;20440;-63
2023/01/28 05:50:13;;;;;;;24.70;12.10;;;1.20;41.80;;;;;;6031325;23;20941;-62
2023/01/28 05:52:40;;;;;;;24.50;12.10;;;1.20;41.70;;;;;;6030269;23;20424;-62
2023/01/28 05:55:08;;;;;;;23.77;15.13;;;1.20;41.80;;;;;;6033965;23;20425;-62
2023/01/28 05:57:35;;;;;;;18.80;11.10;;;1.20;41.80;;;;;;6032956;23;20444;-62
2023/01/28 06:00:01;;;;;;;23.73;12.63;;;1.20;41.80;;;;;;6032581;23;20430;-62
2023/01/28 06:02:28;;;;;;;22.67;13.37;;;1.10;41.90;;;;;;6032417;23;20440;-62
2023/01/28 06:04:56;;;;;;;22.03;12.47;;;1.10;41.70;;;;;;6032009;23;20420;-62
2023/01/28 06:07:23;;;;;;;23.33;12.23;;;1.00;41.90;;;;;;6032323;23;20804;-62
2023/01/28 06:09:50;;;;;;;18.03;11.53;;;1.00;42.10;;;;;;6032142;23;20908;-62
2023/01/28 06:12:17;;;;;;;23.40;12.70;;;1.00;42.00;;;;;;6033218;23;20424;-62
2023/01/28 06:14:44;;;;;;;23.17;13.37;;;1.00;42.10;;;;;;6031949;23;20424;-62
2023/01/28 06:17:11;;;;;;;22.90;13.97;;;1.00;42.30;;;;;;6032149;23;20448;-62
2023/01/28 06:19:38;;;;;;;21.87;12.93;;;0.90;42.50;;;;;;6032938;23;20427;-62
2023/01/28 06:22:06;;;;;;;23.93;14.13;;;0.90;42.50;;;;;;6031760;23;20420;-63
2023/01/28 06:24:33;;;;;;;22.87;12.83;;;0.90;42.40;;;;;;6032624;23;20456;-62
2023/01/28 06:27:00;;;;;;;24.27;12.47;;;1.00;42.50;;;;;;6031231;23;20436;-62
2023/01/28 06:29:26;;;;;;;20.80;11.83;;;1.00;42.30;;;;;;6033396;23;20427;-62
2023/01/28 06:31:53;;;;;;;21.70;11.57;;;0.90;42.20;;;;;;6032788;23;20455;-62
2023/01/28 06:34:20;;;;;;;24.37;12.07;;;1.00;42.10;;;;;;6042511;23;20965;-62
2023/01/28 06:36:47;;;;;;;26.10;13.10;;;1.00;41.70;;;;;;6032966;23;20443;-62
2023/01/28 06:39:15;;;;;;;21.03;11.70;;;0.90;41.90;;;;;;6032975;23;20427;-62
2023/01/28 06:41:42;;;;;;;23.00;11.00;;;0.80;42.10;;;;;;6033264;23;20428;-62
2023/01/28 06:44:09;;;;;;;27.47;13.57;;;0.80;42.40;;;;;;6031336;23;20431;-62
2023/01/28 06:46:36;;;;;;;24.03;12.83;;;0.80;42.50;;;;;;6033467;23;20802;-62
2023/01/28 06:49:02;;;;;;;29.20;14.13;;;0.80;42.60;;;;;;6032228;23;20424;-62
2023/01/28 06:51:29;;;;;;;24.53;12.77;;;0.80;42.80;;;;;;6033305;23;20420;-61
2023/01/28 06:53:56;;;;;;;21.43;12.57;;;0.80;42.80;;;;;;6031599;23;21112;-62
2023/01/28 06:56:24;;;;;;;24.60;13.53;;;0.70;43.10;;;;;;6032362;23;20447;-62
2023/01/28 06:58:51;;;;;;;23.00;12.60;;;0.70;43.40;;;;;;6032360;23;20444;-62
2023/01/28 07:01:17;;;;;;;29.00;13.73;;;0.70;43.50;;;;;;6031724;23;20973;-62
2023/01/28 07:03:44;;;;;;;30.23;16.20;;;0.70;43.50;;;;;;6033443;23;20431;-62
2023/01/28 07:06:11;;;;;;;21.80;13.17;;;0.70;43.60;;;;;;6034606;23;21219;-62
2023/01/28 07:08:38;;;;;;;25.23;12.73;;;0.70;43.50;;;;;;6033857;23;20419;-62
2023/01/28 07:11:05;;;;;;;27.40;14.53;;;0.80;43.40;;;;;;6035244;23;20499;-62
2023/01/28 07:13:33;;;;;;;24.20;13.70;;;0.90;43.40;;;;;;6032341;23;20458;-62
2023/01/28 07:16:00;;;;;;;25.30;13.90;;;0.90;43.20;;;;;;6034864;23;20755;-62
2023/01/28 07:18:27;;;;;;;29.73;15.23;;;0.90;43.20;;;;;;6034080;23;20985;-62
2023/01/28 07:20:54;;;;;;;27.93;14.37;;;1.00;43.00;;;;;;6034482;23;20431;-62
2023/01/28 07:23:22;;;;;;;26.63;13.23;;;1.00;42.70;;;;;;6035534;23;20420;-62
2023/01/28 07:25:49;;;;;;;24.03;14.70;;;1.10;42.70;;;;;;6032991;23;20451;-62
2023/01/28 07:28:20;;;;;;;27.53;14.30;;;1.10;42.50;;;;;;6034524;23;20444;-62
2023/01/28 07:30:49;;;;;;;28.50;14.80;;;1.20;42.30;;;;;;6032794;23;20468;-62
2023/01/28 07:33:16;;;;;;;26.57;14.20;;;1.20;42.10;;;;;;6032776;23;20451;-62
2023/01/28 07:35:42;;;;;;;24.87;14.03;;;1.30;42.10;;;;;;6032573;23;20427;-62
2023/01/28 07:38:09;;;;;;;22.53;13.93;;;1.30;41.90;;;;;;6034089;23;20455;-62
2023/01/28 07:40:36;;;;;;;25.73;13.73;;;1.30;41.60;;;;;;6033666;23;20439;-62
2023/01/28 07:43:03;;;;;;;27.07;14.67;;;1.40;41.30;;;;;;6034707;23;20424;-62
2023/01/28 07:45:30;;;;;;;21.50;12.23;;;1.40;41.20;;;;;;6034818;23;20429;-62
2023/01/28 07:48:00;;;;;;;22.73;13.10;;;1.40;40.90;;;;;;6034337;23;20436;-62
2023/01/28 07:50:28;;;;;;;24.37;13.57;;;1.40;41.10;;;;;;6034818;23;20431;-62
2023/01/28 07:52:55;;;;;;;23.10;13.83;;;1.40;41.00;;;;;;6034920;23;20420;-62
2023/01/28 07:55:23;;;;;;;23.03;13.47;;;1.30;41.00;;;;;;6033791;23;20863;-62
2023/01/28 07:57:51;;;;;;;23.73;12.93;;;1.40;41.00;;;;;;6034614;23;20448;-63
2023/01/28 08:00:19;;;;;;;24.30;13.80;;;1.40;41.10;;;;;;6033803;23;20451;-63
2023/01/28 08:02:47;;;;;;;23.33;12.03;;;1.40;41.00;;;;;;6034540;23;20443;-62
2023/01/28 08:05:19;;;;;;;23.00;12.93;;;1.40;40.90;;;;;;6033718;23;20439;-62
2023/01/28 08:07:47;;;;;;;24.57;13.57;;;1.40;40.90;;;;;;6033488;23;20436;-62
2023/01/28 08:10:14;;;;;;;21.77;14.10;;;1.40;40.60;;;;;;6034594;23;20492;-62
2023/01/28 08:12:41;;;;;;;22.83;12.37;;;1.40;40.70;;;;;;6033830;23;20930;-63
2023/01/28 08:15:08;;;;;;;19.70;11.60;;;1.40;40.60;;;;;;6033248;23;20421;-62
2023/01/28 08:17:35;;;;;;;22.77;12.77;;;1.40;40.50;;;;;;6034222;23;20455;-62
2023/01/28 08:20:02;;;;;;;26.07;13.20;;;1.40;40.40;;;;;;6033506;23;20427;-62
2023/01/28 08:22:30;;;;;;;23.27;13.40;;;1.40;40.40;;;;;;6033124;23;20455;-62
2023/01/28 08:24:57;;;;;;;24.67;13.30;;;1.40;40.40;;;;;;6033701;23;20427;-64
2023/01/28 08:27:24;;;;;;;27.47;13.50;;;1.50;40.50;;;;;;6029796;23;20447;-62
2023/01/28 08:29:50;;;;;;;24.30;13.03;;;1.50;40.30;;;;;;6032947;23;20431;-62
2023/01/28 08:32:17;;;;;;;25.17;12.40;;;1.50;40.20;;;;;;6029747;23;20780;-62
2023/01/28 08:34:44;;;;;;;24.50;13.50;;;1.40;40.20;;;;;;6031495;23;20424;-62
2023/01/28 08:37:11;;;;;;;20.50;11.57;;;1.40;39.90;;;;;;6032231;23;21191;-62
2023/01/28 08:39:39;;;;;;;24.10;14.03;;;1.40;40.00;;;;;;6034208;23;20427;-62
2023/01/28 08:42:05;;;;;;;24.03;13.10;;;1.40;40.20;;;;;;6033021;23;20420;-61
2023/01/28 08:44:32;;;;;;;23.60;13.63;;;1.40;40.30;;;;;;6033479;23;20420;-62
2023/01/28 08:46:59;;;;;;;25.60;13.03;;;1.40;40.30;;;;;;6033341;23;20447;-62
2023/01/28 08:49:26;;;;;;;25.00;14.87;;;1.50;40.50;;;;;;6033817;23;20423;-62
2023/01/28 08:51:54;;;;;;;22.07;13.17;;;1.50;40.50;;;;;;6033121;23;20950;-62
2023/01/28 08:54:21;;;;;;;27.13;14.00;;;1.50;40.30;;;;;;6032615;23;20421;-62
2023/01/28 08:56:50;;;;;;;37.63;14.60;;;1.60;40.20;;;;;;6033036;23;20444;-62
2023/01/28 08:59:17;;;;;;;24.97;14.47;;;1.60;40.10;;;;;;6033589;23;20539;-62
2023/01/28 09:01:43;;;;;;;20.97;12.43;;;1.70;40.10;;;;;;6031873;23;20440;-62
2023/01/28 09:04:10;;;;;;;23.57;13.77;;;1.80;39.90;;;;;;6032916;23;20427;-62
2023/01/28 09:06:37;;;;;;;23.57;13.70;;;1.80;39.70;;;;;;6033361;23;20447;-62
2023/01/28 09:09:04;;;;;;;23.30;13.27;;;1.80;39.50;;;;;;6033436;23;20424;-62
2023/01/28 09:11:31;;;;;;;22.17;13.00;;;1.80;39.40;;;;;;6033051;23;20420;-63
2023/01/28 09:13:59;;;;;;;21.93;13.00;;;1.80;39.40;;;;;;6031109;23;20428;-62
2023/01/28 09:16:26;;;;;;;24.30;12.93;;;1.80;39.50;;;;;;6031741;23;20451;-63
2023/01/28 09:18:53;;;;;;;22.43;12.43;;;1.90;39.20;;;;;;6032694;23;20436;-62
2023/01/28 09:21:21;;;;;;;19.50;11.67;;;1.90;39.10;;;;;;6032211;23;20428;-62
2023/01/28 09:23:47;;;;;;;22.23;12.73;;;1.90;38.80;;;;;;6033736;23;20420;-62
2023/01/28 09:26:14;;;;;;;20.97;12.67;;;2.00;38.70;;;;;;6032864;23;20431;-62
2023/01/28 09:28:41;;;;;;;21.40;12.37;;;2.10;38.50;;;;;;6032708;23;20442;-62
2023/01/28 09:31:11;;;;;;;19.80;11.50;;;2.10;38.40;;;;;;6031671;23;20447;-63
2023/01/28 09:33:40;;;;;;;18.97;11.90;;;2.20;37.90;;;;;;6029156;23;20716;-62
2023/01/28 09:36:10;;;;;;;18.90;11.27;;;2.20;37.90;;;;;;6033979;23;20428;-62
2023/01/28 09:38:37;;;;;;;19.83;11.90;;;2.20;37.60;;;;;;6032064;23;20428;-62
2023/01/28 09:41:19;;;;;;;19.80;12.27;;;2.20;37.60;;;;;;6033795;23;20877;-62
2023/01/28 09:44:03;;;;;;;20.20;11.90;;;2.30;37.70;;;;;;6033073;23;20412;-62
2023/01/28 09:46:34;;;;;;;22.13;12.67;;;2.40;37.30;;;;;;6033797;23;20995;-63
2023/01/28 09:49:05;;;;;;;19.67;12.30;;;2.40;36.90;;;;;;6033386;23;20404;-62
2023/01/28 09:51:36;;;;;;;16.93;11.03;;;2.70;37.00;;;;;;6032810;23;20906;-63
2023/01/28 09:54:07;;;;;;;23.13;12.33;;;3.10;36.20;;;;;;6032689;23;20899;-62
2023/01/28 09:56:39;;;;;;;17.73;10.67;;;3.60;35.00;;;;;;6032556;23;20440;-63
2023/01/28 09:59:16;;;;;;;17.80;10.60;;;4.30;34.00;;;;;;6032426;23;20830;-62
2023/01/28 10:01:50;;;;;;;17.20;10.97;;;4.90;31.60;;;;;;6032307;23;20443;-62
2023/01/28 10:04:27;;;;;;;18.50;11.40;;;5.30;30.10;;;;;;6033535;23;20409;-61
2023/01/28 10:07:06;;;;;;;18.40;12.13;;;5.40;29.20;;;;;;6032892;23;20462;-61
2023/01/28 10:09:42;;;;;;;17.97;11.03;;;5.40;27.70;;;;;;6033486;23;20508;-60
2023/01/28 10:12:31;;;;;;;18.20;10.93;;;5.10;26.20;;;;;;6033371;23;20404;-60
2023/01/28 10:15:18;;;;;;;16.13;9.30;;;4.80;26.60;;;;;;6033151;23;20404;-61
2023/01/28 10:17:50;;;;;;;19.27;10.57;;;4.50;27.60;;;;;;6030168;23;20456;-68
2023/01/28 10:20:24;;;;;;;15.43;10.70;;;4.40;28.20;;;;;;6029120;23;20410;-66
2023/01/28 10:22:56;;;;;;;15.07;9.60;;;4.30;28.10;;;;;;6031582;23;21194;-65
2023/01/28 10:25:25;;;;;;;16.10;9.23;;;4.10;27.60;;;;;;6028981;23;20415;-66
2023/01/28 10:27:52;;;;;;;17.10;10.87;;;4.10;28.40;;;;;;6032090;23;20559;-67
2023/01/28 10:30:21;;;;;;;14.93;9.93;;;4.00;28.50;;;;;;6032249;23;20420;-68
2023/01/28 10:32:53;;;;;;;15.77;9.30;;;3.90;28.30;;;;;;6031693;23;20943;-68
2023/01/28 10:35:20;;;;;;;17.20;11.10;;;3.90;28.40;;;;;;6030813;23;20907;-66
2023/01/28 10:37:47;;;;;;;14.40;9.20;;;3.90;28.50;;;;;;6029999;23;20444;-70
2023/01/28 10:40:16;;;;;;;17.20;10.00;;;3.70;28.80;;;;;;6032280;23;20465;-70
2023/01/28 10:42:43;;;;;;;15.00;9.33;;;3.60;29.10;;;;;;6032664;23;20430;-71
2023/01/28 10:45:18;;;;;;;16.67;9.63;;;3.60;29.40;;;;;;6032932;23;20434;-64
2023/01/28 10:47:47;;;;;;;18.23;10.93;;;3.60;29.60;;;;;;6029245;23;20443;-70
2023/01/28 10:50:21;;;;;;;18.43;10.17;;;3.50;30.00;;;;;;6029314;23;20423;-68
2023/01/28 10:52:55;;;;;;;19.20;10.63;;;3.30;30.30;;;;;;6029145;23;20400;-70
2023/01/28 10:55:24;;;;;;;17.80;11.40;;;3.10;30.80;;;;;;6032284;23;20502;-67
2023/01/28 10:57:51;;;;;;;16.97;9.43;;;3.00;31.10;;;;;;6032577;23;20436;-69
2023/01/28 11:00:24;;;;;;;19.00;11.10;;;2.90;31.40;;;;;;6033409;23;20456;-68
2023/01/28 11:02:51;;;;;;;15.90;10.37;;;2.80;31.90;;;;;;6033511;23;20404;-76
2023/01/28 11:05:21;;;;;;;16.87;9.20;;;2.80;32.00;;;;;;6036188;23;20759;-70
2023/01/28 11:07:49;;;;;;;15.93;9.03;;;2.80;32.10;;;;;;6036360;23;20450;-71
2023/01/28 11:10:26;;;;;;;17.10;9.60;;;2.90;32.10;;;;;;6037139;23;20423;-71
2023/01/28 11:12:56;;;;;;;15.03;9.43;;;3.10;31.60;;;;;;6035245;23;20897;-76
2023/01/28 11:15:23;;;;;;;16.13;10.03;;;3.40;31.40;;;;;;6035910;23;20471;-73
2023/01/28 11:17:55;;;;;;;16.27;9.73;;;3.60;30.80;;;;;;6036445;23;20454;-71
2023/01/28 11:20:27;;;;;;;19.10;9.97;;;3.70;30.10;;;;;;6033569;23;20432;-70
2023/01/28 11:22:54;;;;;;;18.50;10.33;;;3.70;30.00;;;;;;6031608;23;20803;-70
2023/01/28 11:25:27;;;;;;;14.50;8.53;;;3.70;29.60;;;;;;6034433;23;20927;-74
2023/01/28 11:27:54;;;;;;;14.73;9.73;;;3.70;29.30;;;;;;6037481;23;20452;-71
2023/01/28 11:30:23;;;;;;;16.63;10.17;;;3.70;28.60;;;;;;6035302;23;20423;-70
2023/01/28 11:32:56;;;;;;;14.23;8.27;;;3.80;29.00;;;;;;6035663;23;20442;-73
2023/01/28 11:35:30;;;;;;;13.90;9.00;;;4.00;29.10;;;;;;6036983;23;20441;-77
2023/01/28 11:37:57;;;;;;;16.92;11.55;;;4.10;28.60;;;;;;6035103;23;20427;-72
2023/01/28 11:40:24;;;;;;;17.40;11.17;;;4.10;28.90;;;;;;6037932;23;20196;-73
2023/01/28 11:42:52;;;;;;;19.17;12.20;;;4.30;28.10;;;;;;6031695;23;20431;-65
2023/01/28 11:45:23;;;;;;;15.87;9.90;;;4.40;27.80;;;;;;6033014;23;20427;-72
2023/01/28 11:48:10;;;;;;;14.97;9.67;;;4.50;27.70;;;;;;6035460;23;20439;-68
2023/01/28 11:50:47;;;;;;;14.73;9.10;;;4.60;27.30;;;;;;6034602;23;20400;-68
2023/01/28 11:53:45;;;;;;;16.70;10.60;;;4.70;27.20;;;;;;6032016;23;20456;-67
2023/01/28 11:56:35;;;;;;;17.67;11.00;;;4.80;26.70;;;;;;6033590;23;20431;-64
2023/01/28 11:59:18;;;;;;;16.47;10.20;;;4.90;26.70;;;;;;6032628;23;20432;-69
2023/01/28 12:01:50;;;;;;;16.27;9.60;;;4.90;26.50;;;;;;6033087;23;20459;-68
2023/01/28 12:04:46;;;;;;;17.17;10.20;;;4.80;25.40;;;;;;6033802;23;20890;-67
2023/01/28 12:07:31;;;;;;;16.53;10.13;;;4.90;26.20;;;;;;6035207;23;20800;-69
2023/01/28 12:10:06;;;;;;;18.10;10.83;;;5.10;26.00;;;;;;6034408;23;20400;-70
2023/01/28 12:12:49;;;;;;;16.83;10.63;;;5.20;25.70;;;;;;6034122;23;20404;-70
2023/01/28 12:15:46;;;;;;;15.50;9.93;;;5.30;25.80;;;;;;6033850;23;20404;-69
2023/01/28 12:18:24;;;;;;;15.90;9.83;;;5.40;24.50;;;;;;6032753;23;20471;-69
2023/01/28 12:21:07;;;;;;;14.70;9.40;;;5.40;23.80;;;;;;6033795;23;20734;-71
2023/01/28 12:23:46;;;;;;;17.23;9.50;;;5.30;23.80;;;;;;6033322;23;20495;-69
2023/01/28 12:26:16;;;;;;;15.87;10.00;;;5.30;23.70;;;;;;6031907;23;20419;-70
2023/01/28 12:28:58;;;;;;;15.80;10.73;;;5.10;23.90;;;;;;6034087;23;20423;-67
2023/01/28 12:31:40;;;;;;;15.60;9.87;;;5.00;24.10;;;;;;6031725;23;20436;-68
2023/01/28 12:34:31;;;;;;;13.77;9.63;;;5.00;24.40;;;;;;6032624;23;20432;-66
2023/01/28 12:37:04;;;;;;;16.30;9.23;;;5.00;24.30;;;;;;6031085;23;20479;-66
2023/01/28 12:39:44;;;;;;;14.77;8.70;;;5.00;23.60;;;;;;6034169;23;20758;-66
2023/01/28 12:42:15;;;;;;;16.47;10.00;;;4.90;23.50;;;;;;6034081;23;20415;-66
2023/01/28 12:44:47;;;;;;;15.60;9.03;;;4.80;23.90;;;;;;6032940;23;20404;-69
2023/01/28 12:47:19;;;;;;;17.07;10.60;;;4.70;23.50;;;;;;6033310;23;20451;-68
2023/01/28 12:49:50;;;;;;;16.37;9.87;;;4.60;23.70;;;;;;6033850;23;20401;-69
2023/01/28 12:52:21;;;;;;;16.03;9.83;;;4.50;24.20;;;;;;6033983;23;20832;-67
2023/01/28 12:54:57;;;;;;;15.70;10.63;;;4.40;24.90;;;;;;6033450;23;20894;-67
2023/01/28 12:57:31;;;;;;;15.73;8.80;;;4.40;25.30;;;;;;6030320;23;20450;-70
2023/01/28 13:00:12;;;;;;;14.87;9.20;;;4.40;25.70;;;;;;6033480;23;20436;-70
2023/01/28 13:02:42;;;;;;;16.53;9.23;;;4.40;25.80;;;;;;6029285;23;20412;-70
2023/01/28 13:05:13;;;;;;;18.73;10.97;;;4.50;25.80;;;;;;6032448;23;20415;-70
2023/01/28 13:07:47;;;;;;;17.50;10.63;;;4.50;25.80;;;;;;6034222;23;20451;-68
2023/01/28 13:10:22;;;;;;;15.20;9.00;;;4.50;25.80;;;;;;6032762;23;20435;-70
2023/01/28 13:12:50;;;;;;;13.73;9.20;;;4.50;25.70;;;;;;6032895;23;20408;-66
2023/01/28 13:15:19;;;;;;;13.93;9.10;;;4.50;25.60;;;;;;6033082;23;21128;-64
2023/01/28 13:17:57;;;;;;;14.03;8.77;;;4.60;25.60;;;;;;6030473;23;20448;-61
2023/01/28 13:20:36;;;;;;;14.80;9.17;;;4.70;25.10;;;;;;6034446;23;20455;-61